Flinter Rose — PBUB — position and weather

sailwx.info

Track history (hours):
 
Tides and Currents Weather Stations Pressure Air Temp Water Temp Dewpoint Dewpoint Depression Visibility Wind Speed Wind Dir Waves Ship Positions

Flinter Rose

Last reported at 2015-Jul-29 03:33 UTC. Time now 2015-Aug-03 15:10 UTC.
Position N 35°07' W 001°52'.

Length 101 m; draft 5.8 m.

Type: Cargo ship. MMSI: 246227000.

Date/timePositionNaut miles runAvg speedWind from/ knotsBaromVisibWave heightAir tempDewpointWater temp
2015-Jul-29 03:33N 35°07' W 001°52'1 0.1
2015-Jul-28 13:10N 35°06' W 001°52'0 0.0
2015-Jul-27 16:19N 35°06' W 001°52'0 0.0
2015-Jul-27 12:32N 35°06' W 001°52'0 0.0
2015-Jul-27 11:07N 35°06' W 001°52'  
2015-Jul-24 16:33N 35°07' W 001°53'3010.0
2015-Jul-24 13:33N 35°35' W 001°40'1110.7
2015-Jul-24 12:33N 35°45' W 001°36'1110.4
2015-Jul-24 11:30N 35°52' W 001°26'1010.1
2015-Jul-24 10:29N 35°58' W 001°15'8710.7
2015-Jul-24 02:22N 36°48' E 000°13'1311.0
2015-Jul-24 01:13N 36°56' E 000°26'811.2
2015-Jul-24 00:30N 37°00' E 000°34'1111.1
2015-Jul-23 23:32N 37°06' E 000°45'1111.1
2015-Jul-23 22:33N 37°13' E 000°56'1110.4
2015-Jul-23 21:28N 37°19' E 001°08'1110.2
2015-Jul-23 20:25N 37°25' E 001°19'910.4
2015-Jul-23 19:33N 37°31' E 001°28'32611.2
2015-Jul-22 14:20N 40°40' E 007°10'4211.2
2015-Jul-22 10:33N 41°05' E 007°56'1111.0
2015-Jul-22 09:33N 41°11' E 008°08'6310.4
2015-Jul-22 03:31N 41°28' E 009°29'6911.5
2015-Jul-21 21:31N 42°20' E 010°29'1211.6
2015-Jul-21 20:28N 42°32' E 010°31'1011.4
2015-Jul-21 19:33N 42°42' E 010°33'14 0.4
2015-Jul-20 04:20N 42°56' E 010°33'0 0.0
2015-Jul-19 14:16N 42°56' E 010°33'0 0.0
2015-Jul-19 13:18N 42°56' E 010°33'0 0.0
2015-Jul-19 12:23N 42°56' E 010°33'0 0.0
2015-Jul-19 11:26N 42°56' E 010°33'  
Track history (hours):
 
Tides and Currents Weather Stations Pressure Air Temp Water Temp Dewpoint Dewpoint Depression Visibility Wind Speed Wind Dir Waves Ship Positions

Flinter Rose

Last reported at 2015-Jul-29 03:33 UTC. Time now 2015-Aug-03 15:10 UTC.
Position N 35°07' W 001°52'.

Length 101 m; draft 5.8 m.

Type: Cargo ship. MMSI: 246227000.

Date/timePositionNaut miles runAvg speedWind from/ knotsBaromVisibWave heightAir tempDewpointWater temp
2015-Jul-29 03:33N 35°07' W 001°52'1 0.1
2015-Jul-28 13:10N 35°06' W 001°52'0 0.0
2015-Jul-27 16:19N 35°06' W 001°52'0 0.0
2015-Jul-27 12:32N 35°06' W 001°52'0 0.0
2015-Jul-27 11:07N 35°06' W 001°52'  
2015-Jul-24 16:33N 35°07' W 001°53'3010.0
2015-Jul-24 13:33N 35°35' W 001°40'1110.7
2015-Jul-24 12:33N 35°45' W 001°36'1110.4
2015-Jul-24 11:30N 35°52' W 001°26'1010.1
2015-Jul-24 10:29N 35°58' W 001°15'8710.7
2015-Jul-24 02:22N 36°48' E 000°13'1311.0
2015-Jul-24 01:13N 36°56' E 000°26'811.2
2015-Jul-24 00:30N 37°00' E 000°34'1111.1
2015-Jul-23 23:32N 37°06' E 000°45'1111.1
2015-Jul-23 22:33N 37°13' E 000°56'1110.4
2015-Jul-23 21:28N 37°19' E 001°08'1110.2
2015-Jul-23 20:25N 37°25' E 001°19'910.4
2015-Jul-23 19:33N 37°31' E 001°28'32611.2
2015-Jul-22 14:20N 40°40' E 007°10'4211.2
2015-Jul-22 10:33N 41°05' E 007°56'1111.0
2015-Jul-22 09:33N 41°11' E 008°08'6310.4
2015-Jul-22 03:31N 41°28' E 009°29'6911.5
2015-Jul-21 21:31N 42°20' E 010°29'1211.6
2015-Jul-21 20:28N 42°32' E 010°31'1011.4
2015-Jul-21 19:33N 42°42' E 010°33'14 0.4
2015-Jul-20 04:20N 42°56' E 010°33'0 0.0
2015-Jul-19 14:16N 42°56' E 010°33'0 0.0
2015-Jul-19 13:18N 42°56' E 010°33'0 0.0
2015-Jul-19 12:23N 42°56' E 010°33'0 0.0
2015-Jul-19 11:26N 42°56' E 010°33'  

Dump ship's entire track history